createdAt,value
2022-12-25T00:01:58.140Z,101094.69
2022-12-25T00:04:25.550Z,101090.38
2022-12-25T00:06:55.487Z,101092.88
2022-12-25T00:09:22.884Z,101093.72
2022-12-25T00:11:50.275Z,101094.81
2022-12-25T00:14:17.708Z,101089.25
2022-12-25T00:16:45.166Z,101092.16
2022-12-25T00:19:12.685Z,101097.34
2022-12-25T00:21:40.096Z,101094.69
2022-12-25T00:24:09.828Z,101091.91
2022-12-25T00:26:37.258Z,101093.88
2022-12-25T00:29:04.682Z,101097.34
2022-12-25T00:31:32.157Z,101103.81
2022-12-25T00:33:59.670Z,101117.94
2022-12-25T00:36:27.091Z,101111.66
2022-12-25T00:38:54.505Z,101103.69
2022-12-25T00:41:44.163Z,101108.00
2022-12-25T00:44:12.585Z,101107.19
2022-12-25T00:46:40.087Z,101111.78
2022-12-25T00:49:07.619Z,101114.44
2022-12-25T00:51:35.026Z,101119.78
2022-12-25T00:54:02.429Z,101118.78
2022-12-25T00:56:31.097Z,101125.94
2022-12-25T00:58:58.489Z,101141.91
2022-12-25T01:01:25.973Z,101150.88
2022-12-25T01:03:53.476Z,101148.19
2022-12-25T01:06:20.875Z,101156.19
2022-12-25T01:09:02.290Z,101149.06
2022-12-25T01:11:31.193Z,101148.94
2022-12-25T01:13:58.586Z,101149.91
2022-12-25T01:16:26.080Z,101144.69
2022-12-25T01:18:53.489Z,101147.50
2022-12-25T01:21:21.508Z,101146.78
2022-12-25T01:23:49.504Z,101158.13
2022-12-25T01:26:17.066Z,101165.88
2022-12-25T01:28:45.903Z,101156.47
2022-12-25T01:31:16.201Z,101167.84
2022-12-25T01:33:43.979Z,101169.78
2022-12-25T01:36:14.308Z,101176.78
2022-12-25T01:38:41.698Z,101177.03
2022-12-25T01:41:09.125Z,101181.13
2022-12-25T01:43:36.715Z,101184.75
2022-12-25T01:46:05.665Z,101189.38
2022-12-25T01:48:34.519Z,101186.72
2022-12-25T01:51:03.025Z,101187.44
2022-12-25T01:53:30.463Z,101184.06
2022-12-25T01:55:59.312Z,101180.44
2022-12-25T01:58:26.742Z,101180.56
2022-12-25T02:00:54.166Z,101191.06
2022-12-25T02:03:23.055Z,101188.41
2022-12-25T02:05:50.510Z,101198.06
2022-12-25T02:08:18.464Z,101193.75
2022-12-25T02:10:45.904Z,101201.84
2022-12-25T02:13:13.299Z,101208.00
2022-12-25T02:15:43.327Z,101214.19
2022-12-25T02:18:13.100Z,101207.19
2022-12-25T02:21:07.162Z,101209.97
2022-12-25T02:24:02.944Z,101205.59
2022-12-25T02:26:42.957Z,101216.00
2022-12-25T02:29:15.783Z,101209.97
2022-12-25T02:31:45.536Z,101214.41
2022-12-25T02:34:14.906Z,101210.81
2022-12-25T02:36:45.563Z,101216.13
2022-12-25T02:39:45.212Z,101208.25
2022-12-25T02:42:13.488Z,101214.41
2022-12-25T02:45:05.645Z,101229.31
2022-12-25T02:47:50.060Z,101227.88
2022-12-25T02:50:35.300Z,101226.19
2022-12-25T02:53:20.503Z,101227.88
2022-12-25T02:56:05.283Z,101234.88
2022-12-25T02:58:50.506Z,101227.13
2022-12-25T03:01:38.708Z,101225.06
2022-12-25T03:04:36.438Z,101223.53
2022-12-25T03:07:06.941Z,101228.00
2022-12-25T03:09:53.973Z,101225.34
2022-12-25T03:12:25.557Z,101224.47
2022-12-25T03:15:10.911Z,101220.84
2022-12-25T03:17:39.596Z,101213.72
2022-12-25T03:20:25.230Z,101217.47
2022-12-25T03:23:10.187Z,101214.69
2022-12-25T03:25:55.501Z,101214.81
2022-12-25T03:28:22.901Z,101217.47
2022-12-25T03:31:11.979Z,101227.25
2022-12-25T03:34:09.851Z,101230.78
2022-12-25T03:36:41.285Z,101231.75
2022-12-25T03:39:28.861Z,101232.59
2022-12-25T03:42:17.456Z,101237.06
2022-12-25T03:45:10.768Z,101240.56
2022-12-25T03:47:56.908Z,101247.72
2022-12-25T03:50:45.125Z,101250.38
2022-12-25T03:53:31.324Z,101250.63
2022-12-25T03:56:18.372Z,101245.19
2022-12-25T03:59:08.790Z,101244.34
2022-12-25T04:01:53.738Z,101249.66
2022-12-25T04:04:38.881Z,101257.66
2022-12-25T04:07:25.514Z,101260.19
2022-12-25T04:10:10.733Z,101263.94
2022-12-25T04:12:55.578Z,101255.00
2022-12-25T04:15:41.086Z,101251.50
2022-12-25T04:18:25.939Z,101266.47
2022-12-25T04:21:11.329Z,101266.47
2022-12-25T04:23:57.769Z,101266.59
2022-12-25T04:26:43.238Z,101274.59
2022-12-25T04:29:27.998Z,101276.28
2022-12-25T04:32:13.187Z,101269.53
2022-12-25T04:34:58.068Z,101272.06
2022-12-25T04:37:26.766Z,101260.56
2022-12-25T04:39:55.473Z,101266.75
2022-12-25T04:42:22.892Z,101272.06
2022-12-25T04:44:50.287Z,101273.88
2022-12-25T04:47:17.699Z,101287.19
2022-12-25T04:49:45.089Z,101291.66
2022-12-25T04:52:12.504Z,101295.16
2022-12-25T04:54:40.002Z,101295.03
2022-12-25T04:57:08.694Z,101289.13
2022-12-25T04:59:36.118Z,101278.25
2022-12-25T05:02:03.584Z,101277.53
2022-12-25T05:04:31.104Z,101281.84
2022-12-25T05:06:58.534Z,101292.50
2022-12-25T05:09:25.946Z,101285.63
2022-12-25T05:11:53.390Z,101288.28
2022-12-25T05:14:22.091Z,101281.84
2022-12-25T05:16:49.590Z,101285.63
2022-12-25T05:19:16.990Z,101280.41
2022-12-25T05:21:44.403Z,101285.63
2022-12-25T05:24:11.814Z,101285.63
2022-12-25T05:26:39.240Z,101280.41
2022-12-25T05:29:06.962Z,101273.41
2022-12-25T05:31:35.724Z,101268.94
2022-12-25T05:34:03.245Z,101268.78
2022-12-25T05:36:30.652Z,101278.84
2022-12-25T05:38:58.159Z,101269.78
2022-12-25T05:41:29.140Z,101273.16
2022-12-25T05:44:01.323Z,101266.41
2022-12-25T05:46:28.830Z,101270.72
2022-12-25T05:48:57.599Z,101270.59
2022-12-25T05:51:25.962Z,101267.34
2022-12-25T05:53:53.461Z,101272.56
2022-12-25T05:56:20.858Z,101282.38
2022-12-25T05:58:48.293Z,101279.59
2022-12-25T06:01:16.870Z,101261.06
2022-12-25T06:03:44.416Z,101261.06
2022-12-25T06:06:13.330Z,101245.09
2022-12-25T06:08:40.781Z,101244.13
2022-12-25T06:11:08.555Z,101252.97
2022-12-25T06:13:36.149Z,101249.56
2022-12-25T06:16:04.699Z,101254.03
2022-12-25T06:18:32.130Z,101263.72
2022-12-25T06:20:59.579Z,101258.53
2022-12-25T06:23:28.335Z,101250.53
2022-12-25T06:25:55.781Z,101247.00
2022-12-25T06:28:23.195Z,101240.72
2022-12-25T06:30:50.613Z,101258.53
2022-12-25T06:33:18.023Z,101260.19
2022-12-25T06:35:45.458Z,101255.97
2022-12-25T06:38:12.876Z,101267.47
2022-12-25T06:40:41.558Z,101262.03
2022-12-25T06:43:08.961Z,101258.66
2022-12-25T06:45:36.479Z,101261.31
2022-12-25T06:48:04.135Z,101264.09
2022-12-25T06:50:31.551Z,101263.13
2022-12-25T06:52:58.942Z,101252.59
2022-12-25T06:55:26.338Z,101258.66
2022-12-25T06:57:55.352Z,101263.13
2022-12-25T07:00:22.928Z,101265.78
2022-12-25T07:02:50.473Z,101278.34
2022-12-25T07:05:18.070Z,101291.53
2022-12-25T07:07:45.469Z,101296.03
2022-12-25T07:10:12.899Z,101288.88
2022-12-25T07:12:40.331Z,101289.00
2022-12-25T07:15:10.545Z,101296.63
2022-12-25T07:17:37.946Z,101299.66
2022-12-25T07:20:06.905Z,101307.50
2022-12-25T07:22:34.342Z,101304.13
2022-12-25T07:25:01.792Z,101309.47
2022-12-25T07:27:29.249Z,101310.28
2022-12-25T07:29:56.703Z,101314.78
2022-12-25T07:32:25.399Z,101316.47
2022-12-25T07:34:52.824Z,101322.88
2022-12-25T07:37:20.229Z,101331.69
2022-12-25T07:39:47.646Z,101324.47
2022-12-25T07:42:15.925Z,101325.44
2022-12-25T07:44:45.477Z,101313.06
2022-12-25T07:47:14.983Z,101318.41
2022-12-25T07:49:43.694Z,101318.41
2022-12-25T07:52:12.113Z,101330.63
2022-12-25T07:54:39.527Z,101330.50
2022-12-25T07:57:07.049Z,101319.38
2022-12-25T07:59:34.471Z,101307.75
2022-12-25T08:02:02.095Z,101313.94
2022-12-25T08:04:29.765Z,101315.00
2022-12-25T08:06:58.476Z,101323.72
2022-12-25T08:09:26.000Z,101312.97
2022-12-25T08:11:53.393Z,101314.91
2022-12-25T08:14:20.802Z,101310.56
2022-12-25T08:16:48.241Z,101314.91
2022-12-25T08:19:15.746Z,101320.34
2022-12-25T08:21:43.146Z,101326.38
2022-12-25T08:24:11.889Z,101316.47
2022-12-25T08:26:39.295Z,101318.41
2022-12-25T08:29:06.727Z,101313.06
2022-12-25T08:31:37.217Z,101308.84
2022-12-25T08:34:07.060Z,101307.75
2022-12-25T08:36:34.470Z,101301.47
2022-12-25T08:39:03.304Z,101302.44
2022-12-25T08:41:32.307Z,101302.44
2022-12-25T08:43:59.774Z,101302.44
2022-12-25T08:46:27.233Z,101297.09
2022-12-25T08:48:56.524Z,101295.31
2022-12-25T08:51:24.462Z,101298.69
2022-12-25T08:53:52.665Z,101290.94
2022-12-25T08:56:20.301Z,101294.44
2022-12-25T08:58:48.996Z,101284.66
2022-12-25T09:01:16.476Z,101274.03
2022-12-25T09:03:44.064Z,101272.19
2022-12-25T09:06:12.462Z,101263.25
2022-12-25T09:08:45.882Z,101276.56
2022-12-25T09:11:16.138Z,101279.34
2022-12-25T09:13:43.578Z,101269.53
2022-12-25T09:16:13.201Z,101274.84
2022-12-25T09:18:40.831Z,101274.84
2022-12-25T09:21:10.277Z,101264.34
2022-12-25T09:23:37.683Z,101255.50
2022-12-25T09:26:06.911Z,101254.53
2022-12-25T09:28:34.961Z,101250.06
2022-12-25T09:31:02.481Z,101241.09
2022-12-25T09:33:31.245Z,101251.75
2022-12-25T09:35:59.799Z,101247.28
2022-12-25T09:38:28.307Z,101248.97
2022-12-25T09:40:59.468Z,101246.41
2022-12-25T09:43:26.987Z,101254.53
2022-12-25T09:45:54.401Z,101259.59
2022-12-25T09:48:21.871Z,101263.25
2022-12-25T09:50:51.609Z,101260.47
2022-12-25T09:53:20.450Z,101260.47
2022-12-25T09:55:50.643Z,101259.59
2022-12-25T09:58:18.067Z,101252.59
2022-12-25T10:00:48.383Z,101259.84
2022-12-25T10:03:27.664Z,101248.13
2022-12-25T10:06:03.214Z,101263.13
2022-12-25T10:08:48.441Z,101271.97
2022-12-25T10:11:22.656Z,101268.56
2022-12-25T10:14:00.928Z,101267.47
2022-12-25T10:16:32.572Z,101255.50
2022-12-25T10:19:10.114Z,101256.22
2022-12-25T10:21:38.905Z,101257.94
2022-12-25T10:24:08.153Z,101260.59
2022-12-25T10:26:35.795Z,101241.97
2022-12-25T10:29:06.946Z,101246.69
2022-12-25T10:31:35.734Z,101236.75
2022-12-25T10:34:03.186Z,101232.41
2022-12-25T10:36:30.978Z,101220.91
2022-12-25T10:38:59.664Z,101228.78
2022-12-25T10:41:34.156Z,101227.06
2022-12-25T10:44:01.721Z,101215.59
2022-12-25T10:46:29.481Z,101222.59
2022-12-25T10:48:57.760Z,101213.75
2022-12-25T10:51:29.950Z,101220.91
2022-12-25T10:53:57.431Z,101221.75
2022-12-25T10:56:26.164Z,101234.94
2022-12-25T10:59:05.029Z,101223.56
2022-12-25T11:01:32.549Z,101233.22
2022-12-25T11:04:00.067Z,101217.53
2022-12-25T11:06:28.945Z,101224.53
2022-12-25T11:08:57.394Z,101222.84
2022-12-25T11:11:26.431Z,101217.53
2022-12-25T11:13:54.814Z,101219.31
2022-12-25T11:16:30.893Z,101216.78
2022-12-25T11:18:58.656Z,101213.03
2022-12-25T11:21:27.235Z,101222.59
2022-12-25T11:23:58.056Z,101230.56
2022-12-25T11:26:27.141Z,101227.91
2022-12-25T11:28:54.983Z,101211.22
2022-12-25T11:31:23.221Z,101219.22
2022-12-25T11:33:53.405Z,101212.94
2022-12-25T11:36:23.902Z,101214.75
2022-12-25T11:38:51.794Z,101213.03
2022-12-25T11:41:20.651Z,101214.00
2022-12-25T11:43:50.480Z,101208.69
2022-12-25T11:46:19.472Z,101201.56
2022-12-25T11:48:49.908Z,101179.53
2022-12-25T11:51:17.314Z,101163.72
2022-12-25T11:53:46.785Z,101160.91
2022-12-25T11:56:15.709Z,101141.56
2022-12-25T11:58:44.763Z,101136.22
2022-12-25T12:01:17.206Z,101120.16
2022-12-25T12:03:44.687Z,101113.28
2022-12-25T12:06:14.577Z,101106.00
2022-12-25T12:08:41.976Z,101102.63
2022-12-25T12:11:17.840Z,101109.63
2022-12-25T12:13:54.484Z,101105.00
2022-12-25T12:16:23.201Z,101115.66
2022-12-25T12:18:51.035Z,101116.53
2022-12-25T12:21:22.054Z,101116.66
2022-12-25T12:23:50.818Z,101113.28
2022-12-25T12:26:19.766Z,101120.16
2022-12-25T12:28:47.374Z,101123.50
2022-12-25T12:31:14.829Z,101109.63
2022-12-25T12:33:45.147Z,101091.88
2022-12-25T12:36:13.806Z,101088.34
2022-12-25T12:38:43.358Z,101075.28
2022-12-25T12:41:11.035Z,101077.94
2022-12-25T12:43:39.629Z,101083.41
2022-12-25T12:46:09.029Z,101091.41
2022-12-25T12:48:41.637Z,101093.66
2022-12-25T12:51:11.086Z,101102.63
2022-12-25T12:53:39.100Z,101095.59
2022-12-25T12:56:10.697Z,101089.44
2022-12-25T12:58:38.759Z,101087.50
2022-12-25T13:01:12.536Z,101078.81
2022-12-25T13:04:05.763Z,101083.13
2022-12-25T13:06:38.860Z,101087.63
2022-12-25T13:09:10.315Z,101090.41
2022-12-25T13:11:40.821Z,101093.06
2022-12-25T13:14:14.770Z,101095.59
2022-12-25T13:16:43.287Z,101097.56
2022-12-25T13:19:13.843Z,101102.03
2022-12-25T13:21:51.591Z,101097.31
2022-12-25T13:24:20.303Z,101076.50
2022-12-25T13:26:47.692Z,101073.72
2022-12-25T13:29:23.270Z,101062.38
2022-12-25T13:31:50.720Z,101074.56
2022-12-25T13:34:22.864Z,101079.88
2022-12-25T13:36:51.548Z,101072.88
2022-12-25T13:39:18.945Z,101084.38
2022-12-25T13:42:04.673Z,101071.19
2022-12-25T13:44:36.659Z,101060.31
2022-12-25T13:47:09.529Z,101058.47
2022-12-25T13:49:36.937Z,101047.94
2022-12-25T13:52:10.920Z,101047.25
2022-12-25T13:54:38.319Z,101040.97
2022-12-25T13:57:08.081Z,101032.25
2022-12-25T13:59:35.482Z,101022.59
2022-12-25T14:02:03.049Z,101012.66
2022-12-25T14:04:30.518Z,101009.28
2022-12-25T14:06:57.915Z,101009.41
2022-12-25T14:09:26.601Z,101011.94
2022-12-25T14:11:54.443Z,101005.78
2022-12-25T14:14:22.955Z,100997.53
2022-12-25T14:16:51.033Z,101008.44
2022-12-25T14:19:28.355Z,101016.28
2022-12-25T14:21:58.833Z,101028.75
2022-12-25T14:24:28.134Z,101035.63
2022-12-25T14:26:59.985Z,101036.72
2022-12-25T14:29:28.578Z,101034.91
2022-12-25T14:31:58.088Z,101034.19
2022-12-25T14:34:25.508Z,101035.19
2022-12-25T14:36:52.911Z,101034.19
2022-12-25T14:39:32.182Z,101030.69
2022-12-25T14:41:59.584Z,101020.88
2022-12-25T14:44:31.615Z,101018.22
2022-12-25T14:47:17.165Z,101001.56
2022-12-25T14:49:44.592Z,101002.38
2022-12-25T14:52:16.784Z,100988.25
2022-12-25T14:54:47.689Z,100984.63
2022-12-25T14:57:19.459Z,100989.94
2022-12-25T14:59:46.884Z,100981.97
2022-12-25T15:02:17.435Z,100960.69
2022-12-25T15:04:45.015Z,100961.91
2022-12-25T15:07:25.438Z,100963.59
2022-12-25T15:10:18.518Z,100966.00
2022-12-25T15:12:41.492Z,100970.75
2022-12-25T15:15:09.795Z,100960.09
2022-12-25T15:17:38.120Z,100958.28
2022-12-25T15:20:08.486Z,100952.13
2022-12-25T15:23:02.391Z,100949.31
2022-12-25T15:25:24.534Z,100942.56
2022-12-25T15:27:51.932Z,100962.47
2022-12-25T15:30:19.465Z,100960.09
2022-12-25T15:32:46.857Z,100954.91
2022-12-25T15:35:14.849Z,100949.31
2022-12-25T15:37:42.276Z,100944.84
2022-12-25T15:40:10.856Z,100953.91
2022-12-25T15:42:39.538Z,100963.59
2022-12-25T15:45:07.624Z,100962.59
2022-12-25T15:47:35.012Z,100951.97
2022-12-25T15:50:02.423Z,100938.94
2022-12-25T15:52:29.820Z,100930.97
2022-12-25T15:54:57.220Z,100926.59
2022-12-25T15:57:26.264Z,100916.91
2022-12-25T15:59:54.966Z,100921.28
2022-12-25T16:02:22.610Z,100916.91
2022-12-25T16:04:51.039Z,100924.91
2022-12-25T16:07:19.380Z,100915.97
2022-12-25T16:09:46.850Z,100916.78
2022-12-25T16:12:14.287Z,100915.97
2022-12-25T16:14:41.697Z,100913.31
2022-12-25T16:17:11.939Z,100894.69
2022-12-25T16:19:39.349Z,100881.50
2022-12-25T16:22:11.897Z,100882.47
2022-12-25T16:24:39.397Z,100875.34
2022-12-25T16:27:06.847Z,100882.34
2022-12-25T16:29:34.313Z,100890.31
2022-12-25T16:32:01.760Z,100888.53
2022-12-25T16:34:30.526Z,100887.66
2022-12-25T16:36:57.996Z,100886.69
2022-12-25T16:39:25.543Z,100886.69
2022-12-25T16:41:52.964Z,100878.72
2022-12-25T16:44:20.475Z,100874.09
2022-12-25T16:46:47.941Z,100874.34
2022-12-25T16:49:15.475Z,100861.19
2022-12-25T16:51:44.221Z,100851.50
2022-12-25T16:54:11.676Z,100847.31
2022-12-25T16:56:39.129Z,100844.34
2022-12-25T16:59:06.595Z,100838.09
2022-12-25T17:01:34.407Z,100841.69
2022-12-25T17:04:02.516Z,100828.31
2022-12-25T17:06:30.096Z,100826.47
2022-12-25T17:08:59.572Z,100814.25
2022-12-25T17:11:29.545Z,100797.34
2022-12-25T17:13:57.071Z,100787.66
2022-12-25T17:16:25.645Z,100788.50
2022-12-25T17:18:56.287Z,100793.81
2022-12-25T17:21:23.851Z,100795.06
2022-12-25T17:23:54.311Z,100781.78
2022-12-25T17:26:27.772Z,100776.31
2022-12-25T17:28:56.281Z,100776.31
2022-12-25T17:31:23.934Z,100778.84
2022-12-25T17:33:51.378Z,100775.31
2022-12-25T17:36:19.701Z,100768.34
2022-12-25T17:38:47.468Z,100762.19
2022-12-25T17:41:15.668Z,100771.97
2022-12-25T17:43:45.644Z,100771.00
2022-12-25T17:46:14.656Z,100763.16
2022-12-25T17:48:42.167Z,100764.69
2022-12-25T17:51:10.631Z,100755.03
2022-12-25T17:53:38.575Z,100756.00
2022-12-25T17:56:06.206Z,100746.50
2022-12-25T17:58:33.642Z,100744.53
2022-12-25T18:01:07.186Z,100751.56
2022-12-25T18:03:34.702Z,100742.84
2022-12-25T18:06:02.222Z,100728.69
2022-12-25T18:08:35.345Z,100717.81
2022-12-25T18:11:07.191Z,100712.63
2022-12-25T18:13:34.630Z,100700.16
2022-12-25T18:16:02.912Z,100702.94
2022-12-25T18:18:31.912Z,100696.66
2022-12-25T18:20:59.344Z,100683.50
2022-12-25T18:23:26.943Z,100681.41
2022-12-25T18:25:54.352Z,100696.66
2022-12-25T18:28:21.771Z,100693.03
2022-12-25T18:30:49.183Z,100704.75
2022-12-25T18:33:16.584Z,100698.63
2022-12-25T18:35:46.579Z,100708.25
2022-12-25T18:38:14.125Z,100705.59
2022-12-25T18:40:42.307Z,100701.16
2022-12-25T18:43:09.783Z,100692.31
2022-12-25T18:45:37.239Z,100674.69
2022-12-25T18:48:06.282Z,100658.84
2022-12-25T18:50:33.943Z,100648.34
2022-12-25T18:53:04.248Z,100645.69
2022-12-25T18:55:31.729Z,100652.84
2022-12-25T18:57:59.155Z,100648.22
2022-12-25T19:00:27.896Z,100651.72
2022-12-25T19:02:56.874Z,100634.09
2022-12-25T19:05:24.549Z,100618.13
2022-12-25T19:07:52.012Z,100626.09
2022-12-25T19:10:20.768Z,100610.16
2022-12-25T19:12:48.278Z,100609.03
2022-12-25T19:15:15.809Z,100604.84
2022-12-25T19:17:43.273Z,100617.13
2022-12-25T19:20:12.061Z,100604.84
2022-12-25T19:22:39.472Z,100593.31
2022-12-25T19:25:08.175Z,100590.81
2022-12-25T19:27:36.977Z,100591.66
2022-12-25T19:30:05.276Z,100584.53
2022-12-25T19:32:32.689Z,100576.53
2022-12-25T19:35:04.229Z,100575.72
2022-12-25T19:37:31.668Z,100573.88
2022-12-25T19:39:59.093Z,100567.72
2022-12-25T19:42:26.722Z,100565.91
2022-12-25T19:44:55.816Z,100558.06
2022-12-25T19:47:23.226Z,100550.91
2022-12-25T19:49:53.163Z,100549.94
2022-12-25T19:52:21.377Z,100556.22
2022-12-25T19:54:51.291Z,100554.44
2022-12-25T19:57:18.692Z,100549.13
2022-12-25T19:59:46.096Z,100546.59
2022-12-25T20:02:14.950Z,100544.75
2022-12-25T20:04:42.428Z,100536.78
2022-12-25T20:07:09.831Z,100533.28
2022-12-25T20:09:37.934Z,100528.94
2022-12-25T20:12:05.714Z,100531.47
2022-12-25T20:14:33.194Z,100528.09
2022-12-25T20:17:00.647Z,100530.63
2022-12-25T20:19:29.451Z,100526.28
2022-12-25T20:21:56.924Z,100532.28
2022-12-25T20:24:24.641Z,100533.28
2022-12-25T20:26:58.702Z,100523.88
2022-12-25T20:29:26.498Z,100514.69
2022-12-25T20:31:54.004Z,100520.81
2022-12-25T20:34:21.491Z,100518.31
2022-12-25T20:36:50.282Z,100509.34
2022-12-25T20:39:17.681Z,100499.81
2022-12-25T20:41:45.251Z,100502.34
2022-12-25T20:44:13.156Z,100498.72
2022-12-25T20:46:41.040Z,100499.69
2022-12-25T20:49:09.149Z,100497.03
2022-12-25T20:51:36.555Z,100498.84
2022-12-25T20:54:08.352Z,100491.72
2022-12-25T20:56:35.896Z,100491.72
2022-12-25T20:59:03.358Z,100493.41
2022-12-25T21:01:31.271Z,100489.19
2022-12-25T21:03:59.025Z,100483.88
2022-12-25T21:06:26.491Z,100474.94
2022-12-25T21:08:53.928Z,100479.69
2022-12-25T21:11:23.047Z,100474.09
2022-12-25T21:13:50.530Z,100469.03
2022-12-25T21:16:19.742Z,100468.19
2022-12-25T21:18:47.331Z,100467.09
2022-12-25T21:21:14.870Z,100457.56
2022-12-25T21:23:42.335Z,100449.56
2022-12-25T21:26:11.486Z,100449.56
2022-12-25T21:28:40.189Z,100459.94
2022-12-25T21:31:07.869Z,100467.09
2022-12-25T21:33:52.722Z,100466.13
2022-12-25T21:36:22.312Z,100454.47
2022-12-25T21:38:52.942Z,100451.13
2022-12-25T21:41:20.354Z,100459.09
2022-12-25T21:43:49.050Z,100460.81
2022-12-25T21:46:16.552Z,100453.66
2022-12-25T21:48:45.297Z,100436.13
2022-12-25T21:51:32.034Z,100448.59
2022-12-25T21:53:59.616Z,100442.47
2022-12-25T21:56:28.710Z,100447.50
2022-12-25T21:58:59.328Z,100448.75
2022-12-25T22:01:26.780Z,100448.59
2022-12-25T22:03:54.241Z,100452.81
2022-12-25T22:06:39.491Z,100447.78
2022-12-25T22:09:07.039Z,100442.47
2022-12-25T22:11:52.110Z,100456.72
2022-12-25T22:14:52.128Z,100462.03
2022-12-25T22:17:39.508Z,100459.25
2022-12-25T22:20:09.095Z,100445.94
2022-12-25T22:22:36.588Z,100451.97
2022-12-25T22:25:05.245Z,100449.44
2022-12-25T22:27:33.093Z,100448.88
2022-12-25T22:30:02.127Z,100461.91
2022-12-25T22:32:29.653Z,100455.47
2022-12-25T22:34:57.181Z,100442.59
2022-12-25T22:37:25.083Z,100436.28
2022-12-25T22:39:52.537Z,100445.13
2022-12-25T22:42:20.504Z,100425.50
2022-12-25T22:44:48.248Z,100430.25
2022-12-25T22:47:17.059Z,100430.13
2022-12-25T22:49:44.571Z,100423.97
2022-12-25T22:52:12.101Z,100431.81
2022-12-25T22:54:39.742Z,100437.13
2022-12-25T22:57:07.209Z,100420.50
2022-12-25T22:59:34.756Z,100416.00
2022-12-25T23:02:02.314Z,100411.50
2022-12-25T23:04:31.099Z,100408.03
2022-12-25T23:06:58.581Z,100413.34
2022-12-25T23:09:27.891Z,100405.38
2022-12-25T23:11:56.257Z,100394.03
2022-12-25T23:14:41.543Z,100391.94
2022-12-25T23:17:29.551Z,100392.91
2022-12-25T23:20:15.994Z,100382.41
2022-12-25T23:23:01.364Z,100378.91
2022-12-25T23:25:46.759Z,100383.25
2022-12-25T23:28:14.276Z,100385.06
2022-12-25T23:30:40.847Z,100389.56
2022-12-25T23:33:08.300Z,100387.59
2022-12-25T23:35:37.152Z,100389.56
2022-12-25T23:38:04.716Z,100386.75
2022-12-25T23:40:32.145Z,100389.56
2022-12-25T23:42:59.560Z,100387.72
2022-12-25T23:45:26.991Z,100377.22
2022-12-25T23:47:54.411Z,100381.56
2022-12-25T23:50:21.828Z,100375.28
2022-12-25T23:52:50.544Z,100377.34
2022-12-25T23:55:18.176Z,100389.56
2022-12-25T23:57:45.604Z,100389.69
